createdAt,value
2017-08-11T00:00:15.353Z,0
2017-08-11T00:01:15.382Z,0
2017-08-11T00:02:15.385Z,0
2017-08-11T00:03:15.363Z,0
2017-08-11T00:04:15.394Z,0
2017-08-11T00:05:15.362Z,0
2017-08-11T00:06:15.393Z,0
2017-08-11T00:07:15.416Z,0
2017-08-11T00:08:15.455Z,0
2017-08-11T00:09:15.457Z,0
2017-08-11T00:10:15.418Z,0
2017-08-11T00:11:15.432Z,0
2017-08-11T00:12:15.390Z,0
2017-08-11T00:13:15.353Z,0
2017-08-11T00:14:15.316Z,0
2017-08-11T00:15:15.356Z,0
2017-08-11T00:16:15.377Z,0
2017-08-11T00:17:15.367Z,0
2017-08-11T00:18:15.351Z,0
2017-08-11T00:19:15.306Z,0
2017-08-11T00:20:15.366Z,0
2017-08-11T00:21:15.369Z,0
2017-08-11T00:22:15.385Z,0
2017-08-11T00:23:15.396Z,0
2017-08-11T00:24:15.398Z,0
2017-08-11T00:25:15.392Z,0
2017-08-11T00:26:15.400Z,0
2017-08-11T00:27:15.399Z,0
2017-08-11T00:28:15.463Z,0
2017-08-11T00:29:15.464Z,0
2017-08-11T00:30:15.413Z,0
2017-08-11T00:31:15.407Z,0
2017-08-11T00:32:15.404Z,0
2017-08-11T00:33:15.410Z,0
2017-08-11T00:34:15.428Z,0
2017-08-11T00:35:15.481Z,0
2017-08-11T00:36:15.482Z,0
2017-08-11T00:37:15.485Z,0
2017-08-11T00:38:15.416Z,0
2017-08-11T00:39:15.450Z,0
2017-08-11T00:40:15.442Z,0
2017-08-11T00:41:15.475Z,0
2017-08-11T00:42:15.416Z,0
2017-08-11T00:43:15.433Z,0
2017-08-11T00:44:15.476Z,0
2017-08-11T00:45:15.418Z,0
2017-08-11T00:46:15.385Z,0
2017-08-11T00:47:15.479Z,0
2017-08-11T00:48:15.452Z,0
2017-08-11T00:49:15.450Z,0
2017-08-11T00:50:15.488Z,0
2017-08-11T00:51:15.425Z,0
2017-08-11T00:52:15.424Z,0
2017-08-11T00:53:15.460Z,0
2017-08-11T00:54:15.486Z,0
2017-08-11T00:55:15.422Z,0
2017-08-11T00:56:15.464Z,0
2017-08-11T00:57:15.394Z,0
2017-08-11T00:58:15.418Z,0
2017-08-11T00:59:15.493Z,0
2017-08-11T01:00:15.421Z,0
2017-08-11T01:01:15.496Z,0
2017-08-11T01:02:15.497Z,0
2017-08-11T01:03:15.490Z,0
2017-08-11T01:04:15.430Z,0
2017-08-11T01:05:15.430Z,0
2017-08-11T01:06:15.446Z,0
2017-08-11T01:07:15.431Z,0
2017-08-11T01:08:15.422Z,0
2017-08-11T01:09:15.451Z,0
2017-08-11T01:10:15.433Z,0
2017-08-11T01:11:15.401Z,0
2017-08-11T01:12:15.502Z,0
2017-08-11T01:13:15.468Z,0
2017-08-11T01:14:15.459Z,0
2017-08-11T01:15:15.453Z,0
2017-08-11T01:16:15.509Z,0
2017-08-11T01:17:15.461Z,0
2017-08-11T01:18:15.500Z,0
2017-08-11T01:19:15.431Z,0
2017-08-11T01:20:15.498Z,0
2017-08-11T01:21:15.479Z,0
2017-08-11T01:22:15.413Z,0
2017-08-11T01:23:15.404Z,0
2017-08-11T01:24:15.433Z,0
2017-08-11T01:25:15.432Z,0
2017-08-11T01:26:15.469Z,0
2017-08-11T01:27:15.466Z,0
2017-08-11T01:28:15.499Z,0
2017-08-11T01:29:15.439Z,0
2017-08-11T01:30:15.472Z,0
2017-08-11T01:31:15.408Z,0
2017-08-11T01:32:15.434Z,0
2017-08-11T01:33:15.407Z,0
2017-08-11T01:34:15.469Z,0
2017-08-11T01:35:15.418Z,0
2017-08-11T01:36:15.471Z,0
2017-08-11T01:37:15.467Z,0
2017-08-11T01:38:15.425Z,0
2017-08-11T01:39:15.420Z,0
2017-08-11T01:40:15.471Z,0
2017-08-11T01:41:15.421Z,0
2017-08-11T01:42:15.493Z,0
2017-08-11T01:43:15.487Z,0
2017-08-11T01:44:15.420Z,0
2017-08-11T01:45:15.475Z,0
2017-08-11T01:46:15.477Z,0
2017-08-11T01:47:15.527Z,0
2017-08-11T01:48:15.474Z,0
2017-08-11T01:49:15.423Z,0
2017-08-11T01:50:15.481Z,0
2017-08-11T01:51:15.525Z,0
2017-08-11T01:52:15.460Z,0
2017-08-11T01:53:15.421Z,0
2017-08-11T01:54:15.482Z,0
2017-08-11T01:55:15.448Z,0
2017-08-11T01:56:15.489Z,0
2017-08-11T01:57:15.419Z,0
2017-08-11T01:58:15.421Z,0
2017-08-11T01:59:15.485Z,0
2017-08-11T02:00:15.452Z,0
2017-08-11T02:01:15.488Z,0
2017-08-11T02:02:15.472Z,0
2017-08-11T02:03:15.415Z,0
2017-08-11T02:04:15.448Z,0
2017-08-11T02:05:15.448Z,0
2017-08-11T02:06:15.424Z,0
2017-08-11T02:07:15.410Z,0
2017-08-11T02:08:15.429Z,0
2017-08-11T02:09:15.454Z,0
2017-08-11T02:10:15.478Z,0
2017-08-11T02:11:15.504Z,0
2017-08-11T02:12:15.463Z,0
2017-08-11T02:13:15.493Z,0
2017-08-11T02:14:15.456Z,0
2017-08-11T02:15:15.431Z,0
2017-08-11T02:16:15.432Z,0
2017-08-11T02:17:15.459Z,0
2017-08-11T02:18:15.458Z,0
2017-08-11T02:19:15.497Z,0
2017-08-11T02:20:15.463Z,0
2017-08-11T02:21:15.495Z,0
2017-08-11T02:22:15.499Z,0
2017-08-11T02:23:15.451Z,0
2017-08-11T02:24:15.432Z,0
2017-08-11T02:25:15.420Z,0
2017-08-11T02:26:15.425Z,0
2017-08-11T02:27:15.439Z,0
2017-08-11T02:28:15.452Z,0
2017-08-11T02:29:15.445Z,0
2017-08-11T02:30:15.383Z,0
2017-08-11T02:31:15.377Z,0
2017-08-11T02:32:15.441Z,0
2017-08-11T02:33:15.477Z,0
2017-08-11T02:34:15.455Z,0
2017-08-11T02:35:15.479Z,0
2017-08-11T02:36:15.484Z,0
2017-08-11T02:37:15.507Z,0
2017-08-11T02:38:15.550Z,0
2017-08-11T02:39:15.542Z,0
2017-08-11T02:40:15.486Z,0
2017-08-11T02:41:15.507Z,0
2017-08-11T02:42:15.508Z,0
2017-08-11T02:43:15.454Z,0
2017-08-11T02:44:15.475Z,0
2017-08-11T02:45:15.448Z,0
2017-08-11T02:46:15.516Z,0
2017-08-11T02:47:15.516Z,0
2017-08-11T02:48:15.509Z,0
2017-08-11T02:49:15.450Z,0
2017-08-11T02:50:15.479Z,0
2017-08-11T02:51:15.453Z,0
2017-08-11T02:52:15.451Z,0
2017-08-11T02:53:15.477Z,0
2017-08-11T02:54:15.523Z,0
2017-08-11T02:55:15.456Z,0
2017-08-11T02:56:15.478Z,0
2017-08-11T02:57:15.425Z,0
2017-08-11T02:58:15.481Z,0
2017-08-11T02:59:15.526Z,0
2017-08-11T03:00:15.522Z,0
2017-08-11T03:01:15.438Z,0
2017-08-11T03:02:15.486Z,0
2017-08-11T03:03:15.451Z,0
2017-08-11T03:04:15.459Z,0
2017-08-11T03:05:15.447Z,0
2017-08-11T03:06:15.476Z,0
2017-08-11T03:07:15.478Z,0
2017-08-11T03:08:15.480Z,0
2017-08-11T03:09:15.453Z,0
2017-08-11T03:10:15.518Z,0
2017-08-11T03:11:15.402Z,0
2017-08-11T03:12:15.477Z,0
2017-08-11T03:13:15.481Z,0
2017-08-11T03:15:15.485Z,0
2017-08-11T03:16:15.493Z,0
2017-08-11T03:17:15.481Z,0
2017-08-11T03:18:15.442Z,0
2017-08-11T03:19:15.492Z,0
2017-08-11T03:20:15.457Z,0
2017-08-11T03:21:15.481Z,0
2017-08-11T03:22:15.534Z,0
2017-08-11T03:23:15.493Z,0
2017-08-11T03:24:15.496Z,0
2017-08-11T03:25:15.499Z,0
2017-08-11T03:26:15.563Z,0
2017-08-11T03:27:15.529Z,0
2017-08-11T03:28:15.505Z,0
2017-08-11T03:29:15.518Z,0
2017-08-11T03:30:15.478Z,0
2017-08-11T03:31:15.516Z,0
2017-08-11T03:32:15.479Z,0
2017-08-11T03:33:15.564Z,0
2017-08-11T03:34:15.534Z,4
2017-08-11T03:35:15.476Z,4
2017-08-11T03:36:15.498Z,4
2017-08-11T03:37:15.537Z,4
2017-08-11T03:38:15.505Z,4
2017-08-11T03:39:15.503Z,4
2017-08-11T03:40:15.503Z,4
2017-08-11T03:41:15.537Z,4
2017-08-11T03:43:15.541Z,8
2017-08-11T03:44:15.585Z,8
2017-08-11T03:45:15.554Z,4
2017-08-11T03:46:15.519Z,8
2017-08-11T03:47:15.558Z,12
2017-08-11T03:48:15.514Z,12
2017-08-11T03:49:15.528Z,12
2017-08-11T03:50:15.516Z,12
2017-08-11T03:51:15.586Z,12
2017-08-11T03:52:15.555Z,12
2017-08-11T03:53:15.520Z,16
2017-08-11T03:54:15.583Z,20
2017-08-11T03:55:15.560Z,20
2017-08-11T03:56:15.526Z,20
2017-08-11T03:57:15.562Z,20
2017-08-11T03:58:15.529Z,20
2017-08-11T03:59:15.495Z,28
2017-08-11T04:00:15.594Z,24
2017-08-11T04:01:15.492Z,28
2017-08-11T04:02:15.495Z,32
2017-08-11T04:03:15.551Z,32
2017-08-11T04:04:15.603Z,52
2017-08-11T04:05:15.534Z,88
2017-08-11T04:06:15.536Z,76
2017-08-11T04:07:15.505Z,80
2017-08-11T04:08:15.506Z,72
2017-08-11T04:09:15.500Z,92
2017-08-11T04:10:15.552Z,112
2017-08-11T04:11:15.563Z,112
2017-08-11T04:12:15.504Z,108
2017-08-11T04:13:15.500Z,108
2017-08-11T04:14:15.505Z,124
2017-08-11T04:15:15.569Z,140
2017-08-11T04:16:15.537Z,160
2017-08-11T04:17:15.571Z,184
2017-08-11T04:18:15.537Z,196
2017-08-11T04:19:15.545Z,208
2017-08-11T04:20:15.542Z,224
2017-08-11T04:21:15.597Z,236
2017-08-11T04:22:15.575Z,264
2017-08-11T04:23:15.544Z,280
2017-08-11T04:24:15.480Z,296
2017-08-11T04:25:15.530Z,344
2017-08-11T04:26:15.506Z,388
2017-08-11T04:27:15.480Z,448
2017-08-11T04:28:15.491Z,480
2017-08-11T04:29:15.513Z,460
2017-08-11T04:30:15.581Z,476
2017-08-11T04:31:15.507Z,464
2017-08-11T04:32:15.516Z,464
2017-08-11T04:33:15.529Z,464
2017-08-11T04:34:15.546Z,468
2017-08-11T04:35:15.598Z,412
2017-08-11T04:36:15.555Z,372
2017-08-11T04:37:15.548Z,392
2017-08-11T04:38:15.607Z,444
2017-08-11T04:39:15.585Z,456
2017-08-11T04:40:15.580Z,384
2017-08-11T04:41:15.575Z,444
2017-08-11T04:42:15.518Z,492
2017-08-11T04:43:15.571Z,480
2017-08-11T04:44:15.543Z,480
2017-08-11T04:45:15.545Z,476
2017-08-11T04:46:15.545Z,448
2017-08-11T04:47:15.582Z,432
2017-08-11T04:48:15.573Z,396
2017-08-11T04:49:15.547Z,432
2017-08-11T04:50:15.580Z,520
2017-08-11T04:51:15.546Z,576
2017-08-11T04:52:15.550Z,584
2017-08-11T04:53:15.581Z,644
2017-08-11T04:54:15.542Z,680
2017-08-11T04:55:15.591Z,872
2017-08-11T04:56:15.625Z,900
2017-08-11T04:57:15.567Z,824
2017-08-11T04:58:15.566Z,852
2017-08-11T04:59:15.558Z,964
2017-08-11T05:00:15.536Z,1012
2017-08-11T05:01:15.630Z,960
2017-08-11T05:02:15.588Z,952
2017-08-11T05:03:15.553Z,824
2017-08-11T05:04:15.538Z,1064
2017-08-11T05:05:15.620Z,1068
2017-08-11T05:06:15.534Z,1048
2017-08-11T05:07:15.590Z,1004
2017-08-11T05:08:15.542Z,952
2017-08-11T05:09:15.574Z,1004
2017-08-11T05:10:15.627Z,1012
2017-08-11T05:11:15.574Z,1008
2017-08-11T05:12:15.570Z,1068
2017-08-11T05:13:15.602Z,1172
2017-08-11T05:14:15.598Z,1220
2017-08-11T05:15:15.537Z,1352
2017-08-11T05:16:15.534Z,1648
2017-08-11T05:17:15.537Z,1756
2017-08-11T05:18:15.550Z,1772
2017-08-11T05:19:15.561Z,1776
2017-08-11T05:20:15.534Z,1756
2017-08-11T05:21:15.565Z,2128
2017-08-11T05:22:15.538Z,2500
2017-08-11T05:23:15.596Z,2916
2017-08-11T05:24:15.574Z,3172
2017-08-11T05:25:15.584Z,3456
2017-08-11T05:26:15.613Z,3476
2017-08-11T05:27:15.601Z,3300
2017-08-11T05:28:15.579Z,3204
2017-08-11T05:29:15.639Z,2764
2017-08-11T05:30:15.620Z,2648
2017-08-11T05:31:15.620Z,2676
2017-08-11T05:32:15.575Z,2932
2017-08-11T05:33:15.582Z,3064
2017-08-11T05:34:15.644Z,3212
2017-08-11T05:35:15.552Z,3336
2017-08-11T05:36:15.583Z,3256
2017-08-11T05:37:15.643Z,3292
2017-08-11T05:38:15.579Z,3252
2017-08-11T05:39:15.679Z,3352
2017-08-11T05:40:15.647Z,3616
2017-08-11T05:41:15.552Z,3728
2017-08-11T05:42:15.647Z,3812
2017-08-11T05:43:15.645Z,4128
2017-08-11T05:44:15.645Z,4412
2017-08-11T05:45:15.594Z,4552
2017-08-11T05:46:15.595Z,4544
2017-08-11T05:47:15.647Z,4644
2017-08-11T05:48:15.577Z,4708
2017-08-11T05:49:15.617Z,4148
2017-08-11T05:50:15.579Z,4156
2017-08-11T05:51:15.561Z,4092
2017-08-11T05:52:15.558Z,4024
2017-08-11T05:53:15.620Z,4052
2017-08-11T05:54:15.548Z,3924
2017-08-11T05:55:15.625Z,3736
2017-08-11T05:56:15.578Z,3600
2017-08-11T05:57:15.614Z,3716
2017-08-11T05:58:15.550Z,3760
2017-08-11T05:59:15.618Z,3948
2017-08-11T06:00:15.622Z,4564
2017-08-11T06:01:15.617Z,4884
2017-08-11T06:02:15.584Z,4812
2017-08-11T06:03:15.588Z,5204
2017-08-11T06:04:15.589Z,5592
2017-08-11T06:05:15.598Z,5476
2017-08-11T06:06:15.592Z,5308
2017-08-11T06:07:15.596Z,5368
2017-08-11T06:08:15.602Z,5320
2017-08-11T06:09:15.576Z,5144
2017-08-11T06:10:15.669Z,5468
2017-08-11T06:11:15.602Z,5588
2017-08-11T06:12:15.599Z,5492
2017-08-11T06:13:15.570Z,5484
2017-08-11T06:14:15.578Z,5068
2017-08-11T06:15:15.557Z,4784
2017-08-11T06:16:15.559Z,4944
2017-08-11T06:17:15.564Z,4780
2017-08-11T06:18:15.603Z,4820
2017-08-11T06:19:15.572Z,5380
2017-08-11T06:20:15.597Z,5916
2017-08-11T06:21:15.565Z,6392
2017-08-11T06:22:15.626Z,6780
2017-08-11T06:23:15.632Z,7316
2017-08-11T06:24:15.557Z,7504
2017-08-11T06:25:15.557Z,7808
2017-08-11T06:26:15.563Z,7580
2017-08-11T06:27:15.558Z,7476
2017-08-11T06:28:15.563Z,7648
2017-08-11T06:29:15.579Z,8516
2017-08-11T06:30:15.631Z,9052
2017-08-11T06:31:15.595Z,9944
2017-08-11T06:32:15.562Z,10124
2017-08-11T06:33:15.584Z,10252
2017-08-11T06:34:15.583Z,9468
2017-08-11T06:35:15.655Z,9336
2017-08-11T06:36:15.642Z,9492
2017-08-11T06:37:15.677Z,9264
2017-08-11T06:38:15.650Z,9560
2017-08-11T06:39:15.652Z,9860
2017-08-11T06:40:15.621Z,9376
2017-08-11T06:41:15.662Z,9040
2017-08-11T06:42:15.650Z,8456
2017-08-11T06:43:15.625Z,8484
2017-08-11T06:44:15.582Z,8920
2017-08-11T06:45:15.608Z,9044
2017-08-11T06:46:15.610Z,9300
2017-08-11T06:47:15.608Z,10012
2017-08-11T06:48:15.647Z,10728
2017-08-11T06:49:15.641Z,10116
2017-08-11T06:50:15.652Z,9544
2017-08-11T06:51:15.646Z,8652
2017-08-11T06:52:15.608Z,8016
2017-08-11T06:53:15.647Z,7572
2017-08-11T06:54:15.652Z,7204
2017-08-11T06:55:15.657Z,7144
2017-08-11T06:56:15.654Z,7444
2017-08-11T06:57:15.654Z,7200
2017-08-11T06:58:15.669Z,6468
2017-08-11T06:59:15.660Z,5956
2017-08-11T07:00:15.636Z,5760
2017-08-11T07:01:15.660Z,5616
2017-08-11T07:02:15.635Z,5352
2017-08-11T07:03:15.666Z,5160
2017-08-11T07:04:15.628Z,5048
2017-08-11T07:05:15.622Z,5056
2017-08-11T07:06:15.656Z,5452
2017-08-11T07:07:15.594Z,5948
2017-08-11T07:08:15.593Z,6160
2017-08-11T07:09:15.664Z,6516
2017-08-11T07:10:15.595Z,6544
2017-08-11T07:11:15.660Z,6232
2017-08-11T07:12:15.625Z,6148
2017-08-11T07:13:15.665Z,6276
2017-08-11T07:14:15.661Z,6612
2017-08-11T07:15:15.629Z,6780
2017-08-11T07:16:15.658Z,6760
2017-08-11T07:17:15.632Z,6864
2017-08-11T07:18:15.661Z,7672
2017-08-11T07:19:15.663Z,8360
2017-08-11T07:20:15.667Z,8292
2017-08-11T07:21:15.662Z,7796
2017-08-11T07:22:15.629Z,6800
2017-08-11T07:23:15.633Z,6332
2017-08-11T07:24:15.632Z,6736
2017-08-11T07:25:15.709Z,7040
2017-08-11T07:26:15.652Z,7108
2017-08-11T07:27:15.650Z,7020
2017-08-11T07:28:15.687Z,6780
2017-08-11T07:29:15.656Z,6508
2017-08-11T07:30:15.640Z,6648
2017-08-11T07:31:15.619Z,6812
2017-08-11T07:32:15.622Z,7232
2017-08-11T07:33:15.619Z,7608
2017-08-11T07:34:15.729Z,8092
2017-08-11T07:35:15.674Z,8512
2017-08-11T07:36:15.676Z,9324
2017-08-11T07:37:15.642Z,9472
2017-08-11T07:38:15.638Z,9976
2017-08-11T07:39:15.614Z,9500
2017-08-11T07:40:15.647Z,8704
2017-08-11T07:41:15.641Z,7700
2017-08-11T07:42:15.680Z,7400
2017-08-11T07:43:15.610Z,7300
2017-08-11T07:44:15.678Z,7444
2017-08-11T07:45:15.718Z,7100
2017-08-11T07:46:15.696Z,6912
2017-08-11T07:47:15.721Z,7188
2017-08-11T07:48:15.695Z,7836
2017-08-11T07:49:15.690Z,8204
2017-08-11T07:50:15.716Z,8468
2017-08-11T07:51:15.627Z,8188
2017-08-11T07:52:15.767Z,7488
2017-08-11T07:53:15.695Z,6948
2017-08-11T07:54:15.708Z,6616
2017-08-11T07:55:15.632Z,6116
2017-08-11T07:56:15.633Z,5940
2017-08-11T07:57:15.729Z,5952
2017-08-11T07:58:15.713Z,6072
2017-08-11T07:59:15.720Z,6260
2017-08-11T08:00:15.656Z,6484
2017-08-11T08:01:15.661Z,6604
2017-08-11T08:02:15.631Z,6512
2017-08-11T08:03:15.674Z,6408
2017-08-11T08:04:15.636Z,6352
2017-08-11T08:05:15.695Z,6284
2017-08-11T08:06:15.688Z,6672
2017-08-11T08:07:15.626Z,6332
2017-08-11T08:08:15.660Z,6192
2017-08-11T08:09:15.659Z,6028
2017-08-11T08:10:15.660Z,5984
2017-08-11T08:11:15.680Z,5860
2017-08-11T08:12:15.664Z,5988
2017-08-11T08:13:15.630Z,6200
2017-08-11T08:14:15.668Z,6572
2017-08-11T08:15:15.735Z,6708
2017-08-11T08:16:15.734Z,6664
2017-08-11T08:17:15.649Z,6684
2017-08-11T08:18:15.683Z,6764
2017-08-11T08:19:15.676Z,6836
2017-08-11T08:20:15.701Z,7408
2017-08-11T08:21:15.680Z,7992
2017-08-11T08:22:15.717Z,7368
2017-08-11T08:23:15.647Z,7160
2017-08-11T08:24:15.685Z,7124
2017-08-11T08:25:15.651Z,6508
2017-08-11T08:26:15.710Z,6852
2017-08-11T08:27:15.713Z,7380
2017-08-11T08:28:15.654Z,8424
2017-08-11T08:29:15.714Z,8804
2017-08-11T08:30:15.654Z,8840
2017-08-11T08:31:15.714Z,8536
2017-08-11T08:32:15.747Z,8440
2017-08-11T08:33:15.745Z,8700
2017-08-11T08:34:15.657Z,8768
2017-08-11T08:35:15.726Z,8960
2017-08-11T08:36:15.712Z,9156
2017-08-11T08:37:15.661Z,9296
2017-08-11T08:38:15.728Z,8632
2017-08-11T08:39:15.733Z,8504
2017-08-11T08:40:15.749Z,8588
2017-08-11T08:41:15.751Z,8584
2017-08-11T08:42:15.716Z,8664
2017-08-11T08:43:15.717Z,8672
2017-08-11T08:44:15.665Z,8300
2017-08-11T08:45:15.751Z,7940
2017-08-11T08:46:15.748Z,8396
2017-08-11T08:47:15.747Z,9908
2017-08-11T08:48:15.663Z,10952
2017-08-11T08:49:15.698Z,10500
2017-08-11T08:50:15.755Z,9896
2017-08-11T08:51:15.663Z,9528
2017-08-11T08:52:15.740Z,9364
2017-08-11T08:53:15.665Z,8788
2017-08-11T08:54:15.697Z,9464
2017-08-11T08:55:15.756Z,8636
2017-08-11T08:56:15.740Z,7956
2017-08-11T08:57:15.764Z,8468
2017-08-11T08:58:15.689Z,7976
2017-08-11T08:59:15.768Z,8056
2017-08-11T09:00:15.676Z,8684
2017-08-11T09:01:15.730Z,9304
2017-08-11T09:02:15.673Z,9748
2017-08-11T09:03:15.736Z,10912
2017-08-11T09:04:15.728Z,12188
2017-08-11T09:05:15.707Z,12440
2017-08-11T09:06:15.675Z,13524
2017-08-11T09:07:15.748Z,13364
2017-08-11T09:08:15.706Z,13272
2017-08-11T09:09:15.697Z,13852
2017-08-11T09:10:15.708Z,13892
2017-08-11T09:11:15.679Z,13692
2017-08-11T09:12:15.709Z,12972
2017-08-11T09:13:15.730Z,12556
2017-08-11T09:14:15.742Z,13084
2017-08-11T09:15:15.681Z,12800
2017-08-11T09:16:15.715Z,12524
2017-08-11T09:17:15.768Z,12100
2017-08-11T09:18:15.778Z,12060
2017-08-11T09:19:15.682Z,12548
2017-08-11T09:20:15.769Z,12460
2017-08-11T09:21:15.769Z,13340
2017-08-11T09:22:15.734Z,13548
2017-08-11T09:23:15.769Z,12828
2017-08-11T09:24:15.713Z,13104
2017-08-11T09:25:15.657Z,13420
2017-08-11T09:26:15.652Z,12908
2017-08-11T09:27:15.705Z,12568
2017-08-11T09:28:15.704Z,13404
2017-08-11T09:29:15.683Z,14428
2017-08-11T09:30:15.705Z,13692
2017-08-11T09:31:15.664Z,13088
2017-08-11T09:32:15.749Z,13224
2017-08-11T09:33:15.684Z,13144
2017-08-11T09:34:15.707Z,12676
2017-08-11T09:35:15.748Z,12100
2017-08-11T09:36:15.760Z,11420
2017-08-11T09:37:15.726Z,10060
2017-08-11T09:38:15.696Z,9388
2017-08-11T09:39:15.763Z,8568
2017-08-11T09:40:15.724Z,8404
2017-08-11T09:41:15.732Z,7964
2017-08-11T09:42:15.691Z,7284
2017-08-11T09:43:15.791Z,6676
2017-08-11T09:44:15.768Z,6496
2017-08-11T09:45:15.697Z,6292
2017-08-11T09:46:15.736Z,6156
2017-08-11T09:47:15.703Z,5688
2017-08-11T09:48:15.698Z,5144
2017-08-11T09:49:15.753Z,4932
2017-08-11T09:50:15.795Z,4872
2017-08-11T09:51:15.736Z,4988
2017-08-11T09:52:15.757Z,5036
2017-08-11T09:53:15.757Z,5108
2017-08-11T09:54:15.726Z,5296
2017-08-11T09:55:15.729Z,5840
2017-08-11T09:56:15.705Z,5716
2017-08-11T09:57:15.739Z,5240
2017-08-11T09:58:15.703Z,5108
2017-08-11T09:59:15.799Z,5456
2017-08-11T10:00:15.707Z,5800
2017-08-11T10:01:15.737Z,6128
2017-08-11T10:02:15.708Z,6092
2017-08-11T10:03:15.743Z,6124
2017-08-11T10:04:15.797Z,6512
2017-08-11T10:05:15.700Z,6536
2017-08-11T10:06:15.697Z,6380
2017-08-11T10:07:15.764Z,6340
2017-08-11T10:08:15.728Z,6384
2017-08-11T10:09:15.764Z,6428
2017-08-11T10:10:15.775Z,6768
2017-08-11T10:11:15.699Z,6888
2017-08-11T10:12:15.768Z,6800
2017-08-11T10:13:15.738Z,7192
2017-08-11T10:14:15.770Z,7516
2017-08-11T10:15:15.785Z,7748
2017-08-11T10:16:15.714Z,8072
2017-08-11T10:17:15.772Z,8480
2017-08-11T10:18:15.748Z,8872
2017-08-11T10:19:15.777Z,8908
2017-08-11T10:20:15.714Z,8336
2017-08-11T10:21:15.738Z,8616
2017-08-11T10:22:15.718Z,9296
2017-08-11T10:23:15.793Z,9276
2017-08-11T10:24:15.783Z,7880
2017-08-11T10:25:15.716Z,7524
2017-08-11T10:26:15.759Z,7604
2017-08-11T10:27:15.720Z,8140
2017-08-11T10:28:15.786Z,8644
2017-08-11T10:29:15.726Z,9044
2017-08-11T10:30:15.786Z,9620
2017-08-11T10:31:15.759Z,9456
2017-08-11T10:32:15.723Z,10116
2017-08-11T10:33:15.759Z,13588
2017-08-11T10:34:15.757Z,15524
2017-08-11T10:35:15.724Z,13196
2017-08-11T10:36:15.724Z,13088
2017-08-11T10:37:15.728Z,12008
2017-08-11T10:38:15.791Z,10608
2017-08-11T10:39:15.729Z,10476
2017-08-11T10:40:15.820Z,11316
2017-08-11T10:41:15.770Z,12232
2017-08-11T10:42:15.765Z,12616
2017-08-11T10:43:15.766Z,13388
2017-08-11T10:44:15.753Z,13120
2017-08-11T10:45:15.724Z,14016
2017-08-11T10:46:15.752Z,14540
2017-08-11T10:47:15.720Z,18256
2017-08-11T10:48:15.716Z,20108
2017-08-11T10:49:15.782Z,17992
2017-08-11T10:50:15.787Z,17884
2017-08-11T10:51:15.786Z,18312
2017-08-11T10:52:15.724Z,20888
2017-08-11T10:53:15.788Z,22944
2017-08-11T10:54:15.755Z,23744
2017-08-11T10:55:15.792Z,25600
2017-08-11T10:56:15.759Z,24704
2017-08-11T10:57:15.761Z,21920
2017-08-11T10:58:15.742Z,21536
2017-08-11T10:59:15.766Z,23008
2017-08-11T11:00:15.739Z,24608
2017-08-11T11:01:15.828Z,25152
2017-08-11T11:02:15.772Z,26912
2017-08-11T11:03:15.830Z,29408
2017-08-11T11:04:15.769Z,28800
2017-08-11T11:05:15.715Z,26080
2017-08-11T11:06:15.716Z,23168
2017-08-11T11:07:15.752Z,24384
2017-08-11T11:08:15.887Z,27200
2017-08-11T11:09:15.740Z,25984
2017-08-11T11:10:15.740Z,26880
2017-08-11T11:11:15.762Z,27584
2017-08-11T11:12:15.759Z,29856
2017-08-11T11:13:15.754Z,31616
2017-08-11T11:14:15.764Z,32064
2017-08-11T11:15:15.747Z,31360
2017-08-11T11:16:15.753Z,27488
2017-08-11T11:17:15.823Z,22880
2017-08-11T11:18:15.806Z,24448
2017-08-11T11:19:15.786Z,25888
2017-08-11T11:20:15.748Z,30432
2017-08-11T11:21:15.817Z,33600
2017-08-11T11:22:15.752Z,34208
2017-08-11T11:23:15.757Z,35296
2017-08-11T11:24:15.789Z,31840
2017-08-11T11:25:15.807Z,30912
2017-08-11T11:26:15.804Z,29088
2017-08-11T11:27:15.809Z,24128
2017-08-11T11:28:15.746Z,20972
2017-08-11T11:29:15.745Z,16312
2017-08-11T11:30:15.742Z,16788
2017-08-11T11:31:15.814Z,16864
2017-08-11T11:32:15.747Z,17528
2017-08-11T11:33:15.748Z,19048
2017-08-11T11:34:15.812Z,18248
2017-08-11T11:35:15.785Z,19872
2017-08-11T11:36:15.854Z,21168
2017-08-11T11:37:15.820Z,23296
2017-08-11T11:38:15.790Z,21632
2017-08-11T11:39:15.825Z,18088
2017-08-11T11:40:15.766Z,14944
2017-08-11T11:41:15.850Z,14952
2017-08-11T11:42:15.824Z,16880
2017-08-11T11:43:15.764Z,16336
2017-08-11T11:44:15.837Z,15884
2017-08-11T11:45:15.790Z,16240
2017-08-11T11:46:15.787Z,15548
2017-08-11T11:47:15.784Z,14756
2017-08-11T11:48:15.763Z,14648
2017-08-11T11:49:15.819Z,15512
2017-08-11T11:50:15.789Z,17744
2017-08-11T11:51:15.763Z,18844
2017-08-11T11:52:15.762Z,20596
2017-08-11T11:53:15.824Z,23680
2017-08-11T11:54:15.827Z,23680
2017-08-11T11:55:15.826Z,23648
2017-08-11T11:56:15.828Z,20292
2017-08-11T11:57:15.828Z,17392
2017-08-11T11:58:15.798Z,19300
2017-08-11T11:59:15.761Z,21952
2017-08-11T12:00:15.833Z,25088
2017-08-11T12:01:15.756Z,28704
2017-08-11T12:02:15.764Z,35136
2017-08-11T12:03:15.831Z,39968
2017-08-11T12:04:15.799Z,42592
2017-08-11T12:05:15.810Z,43168
2017-08-11T12:06:15.778Z,39008
2017-08-11T12:07:15.802Z,37664
2017-08-11T12:08:16.828Z,37344
2017-08-11T12:09:15.810Z,36416
2017-08-11T12:10:15.853Z,37696
2017-08-11T12:11:15.850Z,37824
2017-08-11T12:12:15.834Z,34048
2017-08-11T12:13:15.783Z,29152
2017-08-11T12:14:15.813Z,27104
2017-08-11T12:15:15.721Z,26912
2017-08-11T12:16:15.797Z,27840
2017-08-11T12:17:15.791Z,29408
2017-08-11T12:18:15.776Z,31904
2017-08-11T12:19:15.796Z,35136
2017-08-11T12:20:15.796Z,34400
2017-08-11T12:21:15.798Z,31072
2017-08-11T12:22:15.722Z,27424
2017-08-11T12:23:15.795Z,25632
2017-08-11T12:24:15.792Z,23904
2017-08-11T12:25:15.789Z,21824
2017-08-11T12:26:15.818Z,21152
2017-08-11T12:27:15.866Z,20680
2017-08-11T12:28:15.793Z,20036
2017-08-11T12:29:15.815Z,18156
2017-08-11T12:30:15.821Z,17180
2017-08-11T12:31:15.883Z,17212
2017-08-11T12:32:15.881Z,17684
2017-08-11T12:33:15.823Z,18744
2017-08-11T12:34:15.818Z,18456
2017-08-11T12:35:15.856Z,17540
2017-08-11T12:36:15.819Z,18092
2017-08-11T12:37:15.862Z,17728
2017-08-11T12:38:15.799Z,17012
2017-08-11T12:39:15.820Z,16332
2017-08-11T12:40:15.796Z,15028
2017-08-11T12:41:15.853Z,13724
2017-08-11T12:42:15.853Z,13512
2017-08-11T12:43:15.898Z,14556
2017-08-11T12:44:15.837Z,16044
2017-08-11T12:45:15.803Z,17156
2017-08-11T12:46:15.897Z,18308
2017-08-11T12:47:15.839Z,20328
2017-08-11T12:48:15.802Z,21348
2017-08-11T12:49:15.837Z,20844
2017-08-11T12:50:15.896Z,20932
2017-08-11T12:51:15.866Z,20460
2017-08-11T12:52:15.809Z,22816
2017-08-11T12:53:15.806Z,25440
2017-08-11T12:54:15.892Z,26272
2017-08-11T12:55:15.831Z,23840
2017-08-11T12:56:15.906Z,22912
2017-08-11T12:57:15.907Z,22016
2017-08-11T12:58:15.806Z,20804
2017-08-11T12:59:15.812Z,18556
2017-08-11T13:00:15.842Z,17736
2017-08-11T13:01:15.873Z,18840
2017-08-11T13:02:15.840Z,20504
2017-08-11T13:03:15.841Z,19720
2017-08-11T13:04:15.907Z,18900
2017-08-11T13:05:15.902Z,16500
2017-08-11T13:06:15.801Z,16324
2017-08-11T13:07:15.836Z,16148
2017-08-11T13:08:15.836Z,15008
2017-08-11T13:09:15.871Z,14044
2017-08-11T13:10:15.865Z,12864
2017-08-11T13:11:15.873Z,12760
2017-08-11T13:12:15.811Z,13748
2017-08-11T13:13:15.802Z,14208
2017-08-11T13:14:15.873Z,13476
2017-08-11T13:15:15.841Z,14572
2017-08-11T13:16:15.839Z,16796
2017-08-11T13:17:15.848Z,16188
2017-08-11T13:18:15.856Z,18968
2017-08-11T13:19:15.822Z,25568
2017-08-11T13:20:15.853Z,25216
2017-08-11T13:21:15.818Z,24064
2017-08-11T13:22:15.890Z,22912
2017-08-11T13:23:15.884Z,20288
2017-08-11T13:24:15.913Z,22336
2017-08-11T13:25:15.829Z,21152
2017-08-11T13:26:15.921Z,21248
2017-08-11T13:27:15.861Z,19496
2017-08-11T13:28:15.856Z,20688
2017-08-11T13:29:15.828Z,22432
2017-08-11T13:30:15.843Z,21504
2017-08-11T13:31:15.891Z,20056
2017-08-11T13:32:15.896Z,16020
2017-08-11T13:33:15.855Z,11380
2017-08-11T13:34:15.870Z,12068
2017-08-11T13:35:15.891Z,12868
2017-08-11T13:36:15.743Z,14792
2017-08-11T13:37:15.816Z,16716
2017-08-11T13:38:15.796Z,15304